createdAt,value
2022-11-24T00:01:31.909Z,96342.47
2022-11-24T00:04:03.427Z,96342.28
2022-11-24T00:06:35.341Z,96342.09
2022-11-24T00:09:05.582Z,96349.22
2022-11-24T00:11:36.672Z,96344.59
2022-11-24T00:14:07.095Z,96345.19
2022-11-24T00:16:38.334Z,96352.47
2022-11-24T00:19:10.373Z,96359.25
2022-11-24T00:21:39.864Z,96363.63
2022-11-24T00:24:08.758Z,96371.72
2022-11-24T00:26:38.274Z,96380.25
2022-11-24T00:29:08.571Z,96376.66
2022-11-24T00:31:41.874Z,96385.63
2022-11-24T00:34:15.505Z,96395.56
2022-11-24T00:36:44.700Z,96393.16
2022-11-24T00:39:15.844Z,96400.91
2022-11-24T00:41:44.861Z,96405.63
2022-11-24T00:44:13.787Z,96414.59
2022-11-24T00:46:42.809Z,96401.69
2022-11-24T00:49:12.266Z,96394.41
2022-11-24T00:51:41.227Z,96395.81
2022-11-24T00:54:10.233Z,96410.13
2022-11-24T00:56:39.080Z,96411.88
2022-11-24T00:59:07.889Z,96405.69
2022-11-24T01:01:37.877Z,96417.50
2022-11-24T01:04:06.990Z,96420.84
2022-11-24T01:06:36.937Z,96432.16
2022-11-24T01:09:05.850Z,96436.34
2022-11-24T01:11:55.310Z,96451.22
2022-11-24T01:14:26.204Z,96454.00
2022-11-24T01:16:55.812Z,96459.56
2022-11-24T01:19:24.828Z,96463.69
2022-11-24T01:21:54.213Z,96462.91
2022-11-24T01:24:23.084Z,96469.09
2022-11-24T01:26:51.896Z,96460.38
2022-11-24T01:29:20.706Z,96468.16
2022-11-24T01:31:49.552Z,96469.59
2022-11-24T01:34:18.494Z,96460.25
2022-11-24T01:36:47.382Z,96475.06
2022-11-24T01:39:16.213Z,96484.22
2022-11-24T01:41:45.036Z,96474.34
2022-11-24T01:44:25.937Z,96471.97
2022-11-24T01:47:21.006Z,96480.09
2022-11-24T01:49:55.050Z,96488.47
2022-11-24T01:52:33.607Z,96489.88
2022-11-24T01:55:07.914Z,96492.09
2022-11-24T01:57:44.875Z,96479.97
2022-11-24T02:00:16.029Z,96488.75
2022-11-24T02:02:46.446Z,96494.38
2022-11-24T02:05:25.322Z,96499.72
2022-11-24T02:07:56.553Z,96518.84
2022-11-24T02:10:25.483Z,96511.47
2022-11-24T02:12:57.107Z,96514.47
2022-11-24T02:15:26.345Z,96513.34
2022-11-24T02:17:55.245Z,96513.34
2022-11-24T02:20:24.053Z,96517.31
2022-11-24T02:22:55.769Z,96536.63
2022-11-24T02:25:51.825Z,96544.63
2022-11-24T02:28:23.097Z,96538.47
2022-11-24T02:30:53.514Z,96542.22
2022-11-24T02:33:23.499Z,96544.19
2022-11-24T02:35:53.478Z,96546.59
2022-11-24T02:38:42.640Z,96552.56
2022-11-24T02:41:18.546Z,96563.31
2022-11-24T02:43:57.170Z,96567.19
2022-11-24T02:46:26.532Z,96572.97
2022-11-24T02:48:55.519Z,96583.78
2022-11-24T02:51:25.019Z,96579.25
2022-11-24T02:53:54.018Z,96585.34
2022-11-24T02:56:22.884Z,96596.31
2022-11-24T02:58:51.872Z,96579.31
2022-11-24T03:01:21.459Z,96585.66
2022-11-24T03:03:50.552Z,96593.53
2022-11-24T03:06:19.313Z,96591.69
2022-11-24T03:08:48.240Z,96600.59
2022-11-24T03:11:17.044Z,96610.84
2022-11-24T03:13:45.899Z,96614.22
2022-11-24T03:16:14.861Z,96611.81
2022-11-24T03:18:43.632Z,96620.91
2022-11-24T03:21:12.414Z,96615.56
2022-11-24T03:23:41.200Z,96625.78
2022-11-24T03:26:12.310Z,96627.84
2022-11-24T03:28:41.515Z,96619.69
2022-11-24T03:31:11.186Z,96636.94
2022-11-24T03:33:40.271Z,96641.13
2022-11-24T03:36:09.643Z,96638.16
2022-11-24T03:38:38.583Z,96640.75
2022-11-24T03:41:07.413Z,96635.06
2022-11-24T03:43:41.968Z,96643.59
2022-11-24T03:46:13.435Z,96633.91
2022-11-24T03:48:42.265Z,96641.41
2022-11-24T03:51:11.665Z,96639.38
2022-11-24T03:53:40.597Z,96650.44
2022-11-24T03:56:09.507Z,96647.16
2022-11-24T03:58:38.318Z,96654.13
2022-11-24T04:01:07.866Z,96670.78
2022-11-24T04:03:36.795Z,96673.56
2022-11-24T04:06:05.884Z,96671.44
2022-11-24T04:08:34.766Z,96664.47
2022-11-24T04:11:03.679Z,96666.44
2022-11-24T04:13:32.562Z,96666.94
2022-11-24T04:16:01.527Z,96674.63
2022-11-24T04:18:30.271Z,96664.84
2022-11-24T04:20:59.104Z,96673.63
2022-11-24T04:23:28.576Z,96676.47
2022-11-24T04:25:57.312Z,96686.56
2022-11-24T04:28:25.968Z,96688.69
2022-11-24T04:30:54.854Z,96692.81
2022-11-24T04:33:23.617Z,96701.75
2022-11-24T04:35:54.357Z,96712.09
2022-11-24T04:39:23.540Z,96706.06
2022-11-24T04:41:11.821Z,96710.59
2022-11-24T04:43:40.890Z,96712.66
2022-11-24T04:46:12.213Z,96709.53
2022-11-24T04:48:41.085Z,96716.94
2022-11-24T04:51:09.820Z,96713.13
2022-11-24T04:53:38.518Z,96720.59
2022-11-24T04:56:07.643Z,96707.88
2022-11-24T04:58:36.721Z,96720.88
2022-11-24T05:01:09.135Z,96716.69
2022-11-24T05:03:38.163Z,96727.19
2022-11-24T05:06:09.306Z,96731.91
2022-11-24T05:08:38.084Z,96739.66
2022-11-24T05:11:07.866Z,96741.34
2022-11-24T05:13:36.709Z,96752.03
2022-11-24T05:16:06.210Z,96751.66
2022-11-24T05:18:35.325Z,96739.25
2022-11-24T05:21:04.884Z,96758.03
2022-11-24T05:23:33.614Z,96758.56
2022-11-24T05:26:03.202Z,96758.09
2022-11-24T05:28:32.028Z,96742.69
2022-11-24T05:31:02.399Z,96743.41
2022-11-24T05:33:33.794Z,96746.44
2022-11-24T05:36:05.229Z,96756.59
2022-11-24T05:38:34.653Z,96763.88
2022-11-24T05:41:05.291Z,96774.25
2022-11-24T05:43:34.026Z,96784.19
2022-11-24T05:46:02.712Z,96788.88
2022-11-24T05:48:31.464Z,96783.13
2022-11-24T05:51:01.021Z,96812.97
2022-11-24T05:53:31.065Z,96813.84
2022-11-24T05:55:59.764Z,96811.66
2022-11-24T05:58:28.562Z,96814.28
2022-11-24T06:00:58.167Z,96817.72
2022-11-24T06:03:26.948Z,96815.97
2022-11-24T06:05:55.735Z,96829.53
2022-11-24T06:08:28.197Z,96816.84
2022-11-24T06:11:17.658Z,96843.06
2022-11-24T06:13:48.912Z,96837.38
2022-11-24T06:16:18.015Z,96837.69
2022-11-24T06:18:46.778Z,96819.47
2022-11-24T06:21:15.559Z,96837.25
2022-11-24T06:23:44.484Z,96837.09
2022-11-24T06:26:13.240Z,96840.66
2022-11-24T06:28:42.319Z,96839.84
2022-11-24T06:31:11.908Z,96853.28
2022-11-24T06:33:40.835Z,96833.41
2022-11-24T06:36:13.892Z,96862.84
2022-11-24T06:38:42.774Z,96862.22
2022-11-24T06:41:14.778Z,96866.44
2022-11-24T06:43:43.794Z,96875.75
2022-11-24T06:46:13.386Z,96874.00
2022-11-24T06:48:42.403Z,96878.03
2022-11-24T06:51:16.092Z,96897.63
2022-11-24T06:53:44.780Z,96900.03
2022-11-24T06:56:20.490Z,96915.75
2022-11-24T06:58:52.716Z,96919.94
2022-11-24T07:01:27.734Z,96913.31
2022-11-24T07:03:57.510Z,96915.06
2022-11-24T07:06:28.889Z,96900.69
2022-11-24T07:08:57.841Z,96907.47
2022-11-24T07:11:26.796Z,96915.22
2022-11-24T07:13:59.923Z,96920.06
2022-11-24T07:16:29.841Z,96923.94
2022-11-24T07:18:59.696Z,96920.72
2022-11-24T07:21:31.173Z,96908.59
2022-11-24T07:24:00.141Z,96907.97
2022-11-24T07:26:28.982Z,96921.16
2022-11-24T07:28:57.929Z,96916.19
2022-11-24T07:31:26.823Z,96919.75
2022-11-24T07:33:56.738Z,96921.75
2022-11-24T07:36:25.815Z,96933.97
2022-11-24T07:38:54.608Z,96939.97
2022-11-24T07:41:23.630Z,96937.53
2022-11-24T07:43:52.528Z,96937.69
2022-11-24T07:46:21.870Z,96925.16
2022-11-24T07:48:50.748Z,96948.00
2022-11-24T07:51:19.629Z,96942.38
2022-11-24T07:53:48.420Z,96948.81
2022-11-24T07:56:17.292Z,96949.13
2022-11-24T07:58:51.377Z,96957.50
2022-11-24T08:01:22.205Z,96960.69
2022-11-24T08:03:51.248Z,96961.09
2022-11-24T08:06:27.263Z,96963.63
2022-11-24T08:08:59.804Z,96977.00
2022-11-24T08:11:29.087Z,96979.28
2022-11-24T08:13:58.122Z,96966.44
2022-11-24T08:16:27.082Z,96964.88
2022-11-24T08:18:57.080Z,96971.81
2022-11-24T08:21:26.926Z,96970.81
2022-11-24T08:23:57.275Z,96961.00
2022-11-24T08:26:27.106Z,96971.78
2022-11-24T08:28:58.539Z,96967.59
2022-11-24T08:31:34.464Z,96966.75
2022-11-24T08:34:04.595Z,96980.53
2022-11-24T08:36:34.205Z,96981.59
2022-11-24T08:39:07.160Z,96988.44
2022-11-24T08:41:37.860Z,96999.63
2022-11-24T08:44:06.591Z,97009.84
2022-11-24T08:46:35.474Z,97000.69
2022-11-24T08:49:05.844Z,96999.00
2022-11-24T08:51:34.744Z,97013.63
2022-11-24T08:54:04.100Z,97004.28
2022-11-24T08:56:34.249Z,97009.47
2022-11-24T08:59:03.646Z,96999.34
2022-11-24T09:01:33.291Z,97017.63
2022-11-24T09:04:02.199Z,97025.25
2022-11-24T09:06:31.343Z,97026.78
2022-11-24T09:09:00.452Z,97037.19
2022-11-24T09:11:29.552Z,97030.44
2022-11-24T09:13:58.445Z,97037.81
2022-11-24T09:16:29.528Z,97047.53
2022-11-24T09:19:01.277Z,97044.31
2022-11-24T09:21:31.742Z,97061.75
2022-11-24T09:24:00.775Z,97054.94
2022-11-24T09:26:32.679Z,97055.50
2022-11-24T09:29:03.047Z,97058.59
2022-11-24T09:31:37.141Z,97056.34
2022-11-24T09:34:08.327Z,97069.44
2022-11-24T09:36:37.433Z,97058.16
2022-11-24T09:39:06.259Z,97063.50
2022-11-24T09:41:53.602Z,97064.97
2022-11-24T09:44:49.548Z,97056.97
2022-11-24T09:47:39.691Z,97070.31
2022-11-24T09:50:14.801Z,97059.69
2022-11-24T09:53:04.182Z,97052.22
2022-11-24T09:55:36.148Z,97060.28
2022-11-24T09:58:36.577Z,97065.28
2022-11-24T10:01:13.766Z,97064.91
2022-11-24T10:03:44.807Z,97067.13
2022-11-24T10:06:19.207Z,97073.72
2022-11-24T10:09:11.213Z,97074.66
2022-11-24T10:11:44.627Z,97085.09
2022-11-24T10:14:42.449Z,97078.31
2022-11-24T10:17:46.060Z,97090.72
2022-11-24T10:20:14.866Z,97090.72
2022-11-24T10:23:02.737Z,97087.72
2022-11-24T10:25:52.905Z,97088.38
2022-11-24T10:28:21.628Z,97089.84
2022-11-24T10:30:50.734Z,97087.88
2022-11-24T10:33:28.752Z,97085.56
2022-11-24T10:36:07.396Z,97102.22
2022-11-24T10:38:44.790Z,97107.00
2022-11-24T10:41:20.265Z,97103.44
2022-11-24T10:43:48.982Z,97116.13
2022-11-24T10:46:26.130Z,97119.13
2022-11-24T10:49:00.975Z,97117.97
2022-11-24T10:51:42.212Z,97105.84
2022-11-24T10:54:29.801Z,97106.69
2022-11-24T10:56:59.032Z,97112.53
2022-11-24T10:59:34.200Z,97119.59
2022-11-24T11:02:24.318Z,97118.28
2022-11-24T11:04:53.429Z,97105.50
2022-11-24T11:07:25.633Z,97096.88
2022-11-24T11:10:19.038Z,97083.03
2022-11-24T11:12:47.941Z,97095.59
2022-11-24T11:15:25.846Z,97076.09
2022-11-24T11:17:59.757Z,97082.84
2022-11-24T11:20:32.055Z,97087.97
2022-11-24T11:23:21.520Z,97104.41
2022-11-24T11:25:50.410Z,97102.78
2022-11-24T11:28:19.135Z,97107.13
2022-11-24T11:31:17.355Z,97103.63
2022-11-24T11:34:06.361Z,97110.06
2022-11-24T11:36:45.745Z,97107.66
2022-11-24T11:39:32.098Z,97105.50
2022-11-24T11:42:37.990Z,97107.78
2022-11-24T11:45:19.122Z,97126.38
2022-11-24T11:48:03.987Z,97123.22
2022-11-24T11:53:56.832Z,97124.94
2022-11-24T11:56:26.829Z,97149.50
2022-11-24T11:59:04.912Z,97128.19
2022-11-24T12:02:11.590Z,97131.00
2022-11-24T12:04:53.646Z,97129.00
2022-11-24T12:07:28.138Z,97131.56
2022-11-24T12:09:59.928Z,97131.56
2022-11-24T12:12:46.618Z,97124.81
2022-11-24T12:15:21.373Z,97119.53
2022-11-24T12:18:04.097Z,97135.75
2022-11-24T12:20:56.599Z,97140.88
2022-11-24T12:23:37.356Z,97142.50
2022-11-24T12:26:31.642Z,97139.25
2022-11-24T12:29:19.963Z,97150.44
2022-11-24T12:32:09.766Z,97146.94
2022-11-24T12:34:55.628Z,97149.78
2022-11-24T12:37:43.487Z,97144.25
2022-11-24T12:40:25.906Z,97152.34
2022-11-24T12:43:25.603Z,97149.28
2022-11-24T12:46:27.401Z,97126.78
2022-11-24T12:49:29.914Z,97162.22
2022-11-24T12:52:42.965Z,97159.53
2022-11-24T12:55:34.142Z,97166.63
2022-11-24T12:58:12.461Z,97166.50
2022-11-24T13:01:00.338Z,97167.16
2022-11-24T13:04:17.050Z,97177.41
2022-11-24T13:06:55.279Z,97165.06
2022-11-24T13:09:24.159Z,97185.38
2022-11-24T13:12:15.757Z,97174.97
2022-11-24T13:14:51.022Z,97167.94
2022-11-24T13:17:50.291Z,97163.38
2022-11-24T13:20:31.292Z,97160.78
2022-11-24T13:23:03.462Z,97162.28
2022-11-24T13:25:37.476Z,97152.84
2022-11-24T13:28:07.426Z,97173.81
2022-11-24T13:30:36.172Z,97175.69
2022-11-24T13:33:16.877Z,97177.97
2022-11-24T13:36:04.818Z,97176.94
2022-11-24T13:38:54.175Z,97166.41
2022-11-24T13:41:35.337Z,97173.16
2022-11-24T13:44:16.345Z,97175.72
2022-11-24T13:47:06.154Z,97178.28
2022-11-24T13:49:40.126Z,97175.06
2022-11-24T13:52:40.173Z,97171.97
2022-11-24T13:55:12.463Z,97176.41
2022-11-24T13:58:12.904Z,97168.06
2022-11-24T14:01:28.978Z,97178.19
2022-11-24T14:04:29.197Z,97176.69
2022-11-24T14:06:52.938Z,97176.84
2022-11-24T14:09:29.232Z,97174.44
2022-11-24T14:12:16.046Z,97169.94
2022-11-24T14:14:46.711Z,97170.09
2022-11-24T14:17:20.587Z,97176.84
2022-11-24T14:19:52.172Z,97165.78
2022-11-24T14:22:27.141Z,97158.50
2022-11-24T14:25:01.502Z,97158.22
2022-11-24T14:27:31.567Z,97169.31
2022-11-24T14:30:03.259Z,97153.53
2022-11-24T14:32:34.356Z,97156.38
2022-11-24T14:35:23.550Z,97170.94
2022-11-24T14:37:52.462Z,97171.63
2022-11-24T14:40:53.734Z,97168.78
2022-11-24T14:43:33.744Z,97160.28
2022-11-24T14:46:07.874Z,97163.66
2022-11-24T14:48:41.262Z,97169.56
2022-11-24T14:51:18.675Z,97175.25
2022-11-24T14:53:51.935Z,97169.28
2022-11-24T14:56:30.886Z,97167.69
2022-11-24T14:59:00.046Z,97169.19
2022-11-24T15:01:37.132Z,97173.50
2022-11-24T15:07:22.655Z,97170.25
2022-11-24T15:09:54.924Z,97151.66
2022-11-24T15:12:35.381Z,97167.41
2022-11-24T15:15:16.045Z,97165.66
2022-11-24T15:17:51.706Z,97155.16
2022-11-24T15:20:27.720Z,97153.09
2022-11-24T15:23:20.585Z,97153.66
2022-11-24T15:25:53.306Z,97152.97
2022-11-24T15:28:29.265Z,97139.31
2022-11-24T15:31:03.861Z,97150.06
2022-11-24T15:33:32.818Z,97132.97
2022-11-24T15:36:02.217Z,97160.56
2022-11-24T15:38:31.084Z,97157.06
2022-11-24T15:41:01.982Z,97162.06
2022-11-24T15:43:35.372Z,97172.97
2022-11-24T15:46:06.029Z,97165.94
2022-11-24T15:48:35.213Z,97162.44
2022-11-24T15:51:07.239Z,97158.66
2022-11-24T15:53:35.997Z,97155.13
2022-11-24T15:56:09.745Z,97152.03
2022-11-24T15:58:38.865Z,97139.13
2022-11-24T16:01:08.248Z,97151.50
2022-11-24T16:03:52.466Z,97146.69
2022-11-24T16:06:25.111Z,97151.81
2022-11-24T16:08:55.394Z,97145.19
2022-11-24T16:11:25.752Z,97153.69
2022-11-24T16:13:54.746Z,97136.31
2022-11-24T16:16:25.830Z,97124.19
2022-11-24T16:18:54.829Z,97147.22
2022-11-24T16:21:23.844Z,97140.34
2022-11-24T16:23:52.578Z,97131.47
2022-11-24T16:26:21.300Z,97137.78
2022-11-24T16:28:50.134Z,97135.63
2022-11-24T16:31:20.298Z,97131.59
2022-11-24T16:33:49.259Z,97137.53
2022-11-24T16:36:18.196Z,97128.91
2022-11-24T16:38:46.964Z,97133.22
2022-11-24T16:41:16.663Z,97129.03
2022-11-24T16:43:45.534Z,97130.81
2022-11-24T16:46:25.316Z,97137.13
2022-11-24T16:48:58.201Z,97139.28
2022-11-24T16:51:32.968Z,97139.28
2022-11-24T16:54:04.577Z,97132.53
2022-11-24T16:56:33.687Z,97143.72
2022-11-24T16:59:02.517Z,97130.94
2022-11-24T17:01:33.510Z,97128.66
2022-11-24T17:04:04.343Z,97138.63
2022-11-24T17:06:36.151Z,97142.00
2022-11-24T17:09:05.008Z,97132.31
2022-11-24T17:11:33.824Z,97136.34
2022-11-24T17:14:03.567Z,97120.72
2022-11-24T17:16:32.644Z,97120.34
2022-11-24T17:19:01.523Z,97126.41
2022-11-24T17:21:30.676Z,97135.56
2022-11-24T17:24:07.884Z,97131.63
2022-11-24T17:26:36.671Z,97135.13
2022-11-24T17:29:05.541Z,97141.59
2022-11-24T17:31:40.379Z,97130.81
2022-11-24T17:34:12.080Z,97137.13
2022-11-24T17:36:42.066Z,97126.06
2022-11-24T17:39:11.660Z,97123.34
2022-11-24T17:41:40.390Z,97111.50
2022-11-24T17:44:11.179Z,97110.00
2022-11-24T17:46:40.320Z,97106.94
2022-11-24T17:49:13.535Z,97108.28
2022-11-24T17:51:42.459Z,97107.50
2022-11-24T17:54:39.298Z,97089.31
2022-11-24T17:57:00.029Z,97102.66
2022-11-24T17:59:28.786Z,97096.84
2022-11-24T18:01:58.220Z,97095.25
2022-11-24T18:04:27.182Z,97088.50
2022-11-24T18:06:55.931Z,97080.81
2022-11-24T18:09:24.674Z,97081.66
2022-11-24T18:11:53.519Z,97083.38
2022-11-24T18:14:22.264Z,97081.88
2022-11-24T18:16:51.062Z,97072.44
2022-11-24T18:19:19.941Z,97074.56
2022-11-24T18:21:48.674Z,97075.47
2022-11-24T18:24:22.673Z,97065.13
2022-11-24T18:26:52.868Z,97064.25
2022-11-24T18:29:22.096Z,97073.13
2022-11-24T18:31:51.056Z,97060.06
2022-11-24T18:34:19.883Z,97073.66
2022-11-24T18:36:52.633Z,97070.94
2022-11-24T18:39:21.609Z,97067.53
2022-11-24T18:41:50.613Z,97068.06
2022-11-24T18:44:19.421Z,97068.59
2022-11-24T18:46:49.843Z,97058.97
2022-11-24T18:49:18.584Z,97058.66
2022-11-24T18:51:47.271Z,97056.41
2022-11-24T18:54:16.286Z,97055.75
2022-11-24T18:56:45.392Z,97066.38
2022-11-24T18:59:14.276Z,97064.78
2022-11-24T19:01:43.765Z,97046.94
2022-11-24T19:04:13.559Z,97046.28
2022-11-24T19:06:42.360Z,97028.56
2022-11-24T19:09:16.498Z,97042.09
2022-11-24T19:11:46.624Z,97031.69
2022-11-24T19:14:18.316Z,97037.72
2022-11-24T19:16:48.673Z,97032.44
2022-11-24T19:19:17.742Z,97005.56
2022-11-24T19:21:46.683Z,97030.25
2022-11-24T19:24:15.471Z,97031.03
2022-11-24T19:26:44.199Z,97024.13
2022-11-24T19:29:12.918Z,97030.72
2022-11-24T19:31:41.744Z,97028.84
2022-11-24T19:34:10.639Z,97024.06
2022-11-24T19:36:41.112Z,97019.44
2022-11-24T19:39:17.009Z,97028.28
2022-11-24T19:41:45.852Z,97013.72
2022-11-24T19:44:14.942Z,97012.88
2022-11-24T19:46:43.679Z,97015.44
2022-11-24T19:49:12.468Z,97008.06
2022-11-24T19:51:41.308Z,97004.91
2022-11-24T19:54:13.474Z,97000.19
2022-11-24T19:56:42.502Z,97002.28
2022-11-24T19:59:15.463Z,96988.72
2022-11-24T20:01:45.155Z,97003.75
2022-11-24T20:04:16.044Z,97000.06
2022-11-24T20:06:48.616Z,96995.44
2022-11-24T20:09:18.837Z,96999.47
2022-11-24T20:11:49.349Z,96984.00
2022-11-24T20:14:19.817Z,96988.69
2022-11-24T20:16:49.055Z,96982.22
2022-11-24T20:19:18.848Z,96983.53
2022-11-24T20:21:49.912Z,96984.53
2022-11-24T20:24:25.136Z,96967.66
2022-11-24T20:26:59.510Z,96973.22
2022-11-24T20:29:32.807Z,96970.81
2022-11-24T20:32:01.693Z,96969.50
2022-11-24T20:34:30.541Z,96964.31
2022-11-24T20:36:59.274Z,96972.31
2022-11-24T20:39:29.127Z,96966.88
2022-11-24T20:41:57.892Z,96959.34
2022-11-24T20:44:28.293Z,96966.13
2022-11-24T20:47:00.257Z,96957.47
2022-11-24T20:49:29.312Z,96954.63
2022-11-24T20:51:58.279Z,96953.78
2022-11-24T20:54:27.309Z,96941.56
2022-11-24T20:56:56.426Z,96950.06
2022-11-24T20:59:26.348Z,96951.03
2022-11-24T21:01:59.839Z,96947.03
2022-11-24T21:04:28.970Z,96936.09
2022-11-24T21:06:57.975Z,96939.16
2022-11-24T21:09:28.048Z,96928.22
2022-11-24T21:11:56.898Z,96936.13
2022-11-24T21:14:25.693Z,96937.59
2022-11-24T21:16:54.617Z,96931.00
2022-11-24T21:19:23.672Z,96934.88
2022-11-24T21:21:52.470Z,96934.88
2022-11-24T21:24:22.236Z,96927.63
2022-11-24T21:26:53.174Z,96923.97
2022-11-24T21:29:23.952Z,96932.16
2022-11-24T21:31:53.065Z,96934.28
2022-11-24T21:34:22.013Z,96929.94
2022-11-24T21:36:50.817Z,96927.41
2022-11-24T21:39:19.744Z,96910.88
2022-11-24T21:41:48.801Z,96930.81
2022-11-24T21:44:17.984Z,96930.50
2022-11-24T21:46:52.725Z,96911.69
2022-11-24T21:49:24.398Z,96904.47
2022-11-24T21:51:56.245Z,96929.03
2022-11-24T21:54:25.238Z,96917.00
2022-11-24T21:56:55.059Z,96926.66
2022-11-24T21:59:23.944Z,96908.34
2022-11-24T22:01:53.328Z,96917.84
2022-11-24T22:04:22.157Z,96911.09
2022-11-24T22:06:52.938Z,96902.75
2022-11-24T22:09:21.934Z,96904.50
2022-11-24T22:11:52.679Z,96905.78
2022-11-24T22:14:21.476Z,96904.00
2022-11-24T22:16:50.348Z,96898.06
2022-11-24T22:19:19.544Z,96895.50
2022-11-24T22:21:48.397Z,96892.34
2022-11-24T22:24:17.199Z,96891.03
2022-11-24T22:26:46.024Z,96885.91
2022-11-24T22:29:14.844Z,96886.72
2022-11-24T22:31:44.007Z,96872.91
2022-11-24T22:34:12.846Z,96883.19
2022-11-24T22:36:41.688Z,96882.84
2022-11-24T22:39:12.767Z,96877.53
2022-11-24T22:41:41.586Z,96894.09
2022-11-24T22:44:10.406Z,96889.09
2022-11-24T22:46:39.183Z,96888.78
2022-11-24T22:49:08.104Z,96885.75
2022-11-24T22:51:39.939Z,96892.66
2022-11-24T22:54:12.398Z,96892.81
2022-11-24T22:56:41.202Z,96884.94
2022-11-24T22:59:09.893Z,96891.38
2022-11-24T23:01:39.405Z,96889.81
2022-11-24T23:04:08.505Z,96896.91
2022-11-24T23:06:37.335Z,96867.50
2022-11-24T23:09:06.821Z,96886.47
2022-11-24T23:11:39.443Z,96886.50
2022-11-24T23:14:13.882Z,96888.63
2022-11-24T23:16:43.738Z,96885.72
2022-11-24T23:19:12.769Z,96877.53
2022-11-24T23:21:41.519Z,96879.47
2022-11-24T23:24:11.764Z,96873.72
2022-11-24T23:26:41.826Z,96870.81
2022-11-24T23:29:11.768Z,96867.13
2022-11-24T23:31:40.665Z,96868.09
2022-11-24T23:34:09.834Z,96867.94
2022-11-24T23:36:38.848Z,96860.03
2022-11-24T23:39:09.891Z,96865.69
2022-11-24T23:41:38.967Z,96865.84
2022-11-24T23:44:08.212Z,96858.13
2022-11-24T23:46:37.117Z,96866.16
2022-11-24T23:49:05.978Z,96872.75
2022-11-24T23:51:35.114Z,96859.09
2022-11-24T23:54:09.159Z,96859.22
2022-11-24T23:56:38.131Z,96850.53
2022-11-24T23:59:06.962Z,96865.81
